Time;durP1;ratioP1;P1;durP2;ratioP2;P2;SDS_P1;SDS_P2;PMS_P1;PMS_P2;Temp;Humidity;BMP_temperature;BMP_pressure;BME280_temperature;BME280_humidity;BME280_pressure;Samples;Min_cycle;Max_cycle;Signal;HPM_P1;HPM_P2
2024/01/30 00:01:07;;;;;;;0.98;0.98;;;;;;;-3.10;100.00;100381.69;4875845;29;20136;-76
2024/01/30 00:03:34;;;;;;;1.33;1.23;;;;;;;-3.11;100.00;100380.88;4875401;29;20056;-76
2024/01/30 00:06:03;;;;;;;1.00;1.00;;;;;;;-3.10;100.00;100377.25;4875937;29;20088;-77
2024/01/30 00:08:30;;;;;;;0.98;0.98;;;;;;;-3.11;100.00;100362.38;4865868;29;20080;-76
2024/01/30 00:10:58;;;;;;;1.00;1.00;;;;;;;-3.12;100.00;100367.78;4857191;29;20422;-76
2024/01/30 00:13:25;;;;;;;1.00;1.00;;;;;;;-3.13;100.00;100376.66;4857205;29;20057;-77
2024/01/30 00:15:53;;;;;;;1.05;1.05;;;;;;;-3.12;100.00;100373.06;4857313;29;20053;-76
2024/01/30 00:18:21;;;;;;;1.00;1.00;;;;;;;-3.10;100.00;100376.41;4840758;29;20532;-76
2024/01/30 00:20:48;;;;;;;0.90;0.90;;;;;;;-3.08;100.00;100377.97;4840034;29;20433;-76
2024/01/30 00:23:16;;;;;;;1.08;1.08;;;;;;;-3.05;100.00;100375.06;4856416;29;20053;-76
2024/01/30 00:25:43;;;;;;;1.10;1.10;;;;;;;-3.07;100.00;100378.81;4856470;29;20193;-74
2024/01/30 00:28:10;;;;;;;0.90;0.90;;;;;;;-3.07;100.00;100378.81;4857039;29;20077;-76
2024/01/30 00:30:38;;;;;;;1.00;1.00;;;;;;;-3.05;100.00;100369.78;4857051;29;20079;-78
2024/01/30 00:33:05;;;;;;;1.00;1.00;;;;;;;-3.04;100.00;100365.34;4856753;29;20053;-77
2024/01/30 00:35:33;;;;;;;1.05;1.05;;;;;;;-3.05;100.00;100368.97;4856766;29;20081;-78
2024/01/30 00:38:00;;;;;;;1.20;1.20;;;;;;;-3.03;100.00;100368.84;4856988;29;20053;-81
2024/01/30 00:40:27;;;;;;;1.30;1.20;;;;;;;-3.03;100.00;100366.22;4885153;29;20053;-80
2024/01/30 00:42:54;;;;;;;1.10;1.10;;;;;;;-3.01;100.00;100361.63;4873797;29;20054;-79
2024/01/30 00:45:22;;;;;;;0.90;0.90;;;;;;;-2.99;100.00;100367.63;4840393;29;20053;-80
2024/01/30 00:47:49;;;;;;;0.90;0.90;;;;;;;-2.98;100.00;100369.31;4840360;29;20053;-81
2024/01/30 00:50:17;;;;;;;0.88;0.88;;;;;;;-2.97;100.00;100370.97;4856769;29;20058;-81
2024/01/30 00:52:45;;;;;;;0.90;0.90;;;;;;;-2.95;100.00;100369.06;4839728;29;20049;-81
2024/01/30 00:55:14;;;;;;;1.00;1.00;;;;;;;-2.92;100.00;100359.06;4856885;29;20053;-79
2024/01/30 00:57:41;;;;;;;1.00;1.00;;;;;;;-2.90;100.00;100366.88;4856613;29;20537;-79
2024/01/30 01:00:12;;;;;;;0.90;0.90;;;;;;;-2.90;100.00;100366.88;4856515;29;20450;-80
2024/01/30 01:02:39;;;;;;;1.02;1.02;;;;;;;-2.92;100.00;100361.72;4856671;29;20440;-79
2024/01/30 01:05:07;;;;;;;1.00;1.00;;;;;;;-2.89;100.00;100366.75;4840444;29;20071;-80
2024/01/30 01:07:34;;;;;;;1.10;1.10;;;;;;;-2.89;100.00;100356.19;4856368;29;20061;-79
2024/01/30 01:10:13;;;;;;;0.95;0.95;;;;;;;-2.88;100.00;100354.41;4839651;29;20077;-80
2024/01/30 01:12:41;;;;;;;1.10;1.10;;;;;;;-2.90;100.00;100346.59;4856120;29;20054;-79
2024/01/30 01:15:09;;;;;;;1.10;1.10;;;;;;;-2.87;100.00;100345.50;4856357;29;20061;-79
2024/01/30 01:17:40;;;;;;;1.17;1.13;;;;;;;-2.86;100.00;100352.44;4860150;29;20057;-79
2024/01/30 01:20:08;;;;;;;1.00;1.00;;;;;;;-2.81;100.00;100349.44;4843715;29;20530;-78
2024/01/30 01:22:35;;;;;;;1.15;1.15;;;;;;;-2.79;100.00;100353.63;4860094;29;20088;-80
2024/01/30 01:25:03;;;;;;;0.98;0.98;;;;;;;-2.76;100.00;100353.41;4860644;29;20062;-80
2024/01/30 01:27:32;;;;;;;1.05;1.05;;;;;;;-2.75;100.00;100344.50;4860459;29;20140;-81
2024/01/30 01:29:59;;;;;;;1.00;1.00;;;;;;;-2.72;100.00;100352.16;4860226;29;20539;-80
2024/01/30 01:32:29;;;;;;;1.20;1.17;;;;;;;-2.72;100.00;100338.94;4843748;29;20148;-81
2024/01/30 01:34:56;;;;;;;1.30;1.20;;;;;;;-2.67;100.00;100357.91;4861292;29;20057;-80
2024/01/30 01:37:26;;;;;;;0.95;0.95;;;;;;;-2.68;100.00;100340.38;4897333;29;20053;-80
2024/01/30 01:39:55;;;;;;;1.20;1.20;;;;;;;-2.66;100.00;100342.88;4865789;29;20505;-81
2024/01/30 01:42:22;;;;;;;0.90;0.90;;;;;;;-2.66;100.00;100333.19;4859962;29;20509;-79
2024/01/30 01:44:49;;;;;;;1.00;1.00;;;;;;;-2.67;100.00;100328.84;4843591;29;20063;-81
2024/01/30 01:47:16;;;;;;;0.90;0.90;;;;;;;-2.67;100.00;100330.66;4859806;29;20053;-80
2024/01/30 01:49:45;;;;;;;0.90;0.90;;;;;;;-2.67;100.00;100334.13;4859968;29;20061;-82
2024/01/30 01:52:12;;;;;;;1.30;1.20;;;;;;;-2.64;100.00;100330.38;4859751;29;20058;-80
2024/01/30 01:54:40;;;;;;;1.00;1.00;;;;;;;-2.60;100.00;100341.56;4859770;29;20076;-81
2024/01/30 01:57:07;;;;;;;1.00;1.00;;;;;;;-2.60;100.00;100337.09;4843552;29;20484;-81
2024/01/30 01:59:35;;;;;;;0.88;0.88;;;;;;;-2.59;100.00;100343.22;4860037;29;20432;-79
2024/01/30 02:02:03;;;;;;;1.10;1.10;;;;;;;-2.54;100.00;100343.69;4858505;29;20440;-80
2024/01/30 02:04:31;;;;;;;0.90;0.90;;;;;;;-2.53;100.00;100324.19;4843467;29;20548;-80
2024/01/30 02:06:58;;;;;;;1.00;1.00;;;;;;;-2.52;100.00;100333.81;4859912;29;20075;-81
2024/01/30 02:09:26;;;;;;;1.10;1.10;;;;;;;-2.52;100.00;100325.91;4859670;29;20515;-80
2024/01/30 02:11:53;;;;;;;1.00;1.00;;;;;;;-2.52;100.00;100317.97;4859815;29;20448;-78
2024/01/30 02:14:20;;;;;;;1.00;1.00;;;;;;;-2.55;100.00;100313.78;4859486;29;20136;-78
2024/01/30 02:16:49;;;;;;;1.10;1.10;;;;;;;-2.52;100.00;100316.16;4859346;29;20532;-78
2024/01/30 02:19:16;;;;;;;1.00;1.00;;;;;;;-2.51;100.00;100316.97;4842725;29;20098;-78
2024/01/30 02:21:44;;;;;;;1.10;1.10;;;;;;;-2.50;100.00;100300.19;4859354;29;20084;-79
2024/01/30 02:24:11;;;;;;;1.00;1.00;;;;;;;-2.48;100.00;100320.22;4842839;29;20226;-78
2024/01/30 02:26:39;;;;;;;0.90;0.90;;;;;;;-2.47;100.00;100326.34;4858882;29;20484;-77
2024/01/30 02:29:06;;;;;;;1.00;1.00;;;;;;;-2.45;100.00;100306.75;4859442;29;20203;-78
2024/01/30 02:31:33;;;;;;;1.00;1.00;;;;;;;-2.42;100.00;100318.88;4866255;29;20052;-78
2024/01/30 02:34:01;;;;;;;0.95;0.95;;;;;;;-2.42;100.00;100324.16;4896516;29;20437;-77
2024/01/30 02:36:28;;;;;;;1.00;1.00;;;;;;;-2.40;100.00;100312.47;4843106;29;20068;-78
2024/01/30 02:38:55;;;;;;;1.00;1.00;;;;;;;-2.43;100.00;100325.09;4858870;29;20122;-82
2024/01/30 02:41:22;;;;;;;1.00;1.00;;;;;;;-2.38;100.00;100311.50;4858769;29;20117;-82
2024/01/30 02:43:50;;;;;;;1.00;1.00;;;;;;;-2.35;100.00;100322.69;4858612;29;20057;-83
2024/01/30 02:46:17;;;;;;;1.05;1.05;;;;;;;-2.34;100.00;100315.56;4842156;29;20109;-83
2024/01/30 02:48:45;;;;;;;1.05;1.05;;;;;;;-2.36;100.00;100328.09;4859012;29;20418;-83
2024/01/30 02:51:12;;;;;;;1.10;1.10;;;;;;;-2.33;100.00;100312.81;4858751;29;20056;-82
2024/01/30 02:53:39;;;;;;;0.90;0.90;;;;;;;-2.34;100.00;100320.88;4826868;29;20152;-79
2024/01/30 02:56:09;;;;;;;0.98;0.98;;;;;;;-2.30;100.00;100315.19;4858662;29;20061;-79
2024/01/30 02:58:37;;;;;;;0.90;0.90;;;;;;;-2.30;100.00;100317.84;4858682;29;20590;-77
2024/01/30 03:01:05;;;;;;;0.98;0.98;;;;;;;-2.26;100.00;100307.81;4858163;29;20072;-77
2024/01/30 03:03:35;;;;;;;0.90;0.90;;;;;;;-2.27;100.00;100314.09;4858770;29;20544;-77
2024/01/30 03:06:02;;;;;;;0.90;0.90;;;;;;;-2.26;100.00;100299.91;4842527;29;20073;-77
2024/01/30 03:08:29;;;;;;;0.90;0.90;;;;;;;-2.28;100.00;100305.34;4859052;29;20065;-77
2024/01/30 03:10:57;;;;;;;1.00;1.00;;;;;;;-2.26;100.00;100319.25;4826677;29;20544;-78
2024/01/30 03:13:25;;;;;;;1.08;1.08;;;;;;;-2.23;100.00;100313.72;4858344;29;20548;-79
2024/01/30 03:15:52;;;;;;;1.10;1.10;;;;;;;-2.22;100.00;100310.09;4858585;29;20450;-78
2024/01/30 03:18:19;;;;;;;1.02;1.02;;;;;;;-2.19;100.00;100311.63;4858463;29;20061;-78
2024/01/30 03:20:47;;;;;;;1.00;1.00;;;;;;;-2.20;100.00;100317.91;4841763;29;20088;-79
2024/01/30 03:23:15;;;;;;;1.00;1.00;;;;;;;-2.16;100.00;100313.19;4858115;29;20521;-79
2024/01/30 03:25:42;;;;;;;1.00;1.00;;;;;;;-2.15;100.00;100323.63;4858425;29;20505;-79
2024/01/30 03:28:09;;;;;;;0.98;0.98;;;;;;;-2.19;100.00;100320.41;4870354;29;20075;-79
2024/01/30 03:30:36;;;;;;;0.95;0.95;;;;;;;-2.17;100.00;100322.94;4891501;29;20123;-79
2024/01/30 03:33:04;;;;;;;0.90;0.90;;;;;;;-2.16;100.00;100314.00;4841500;29;20414;-79
2024/01/30 03:35:31;;;;;;;1.02;1.02;;;;;;;-2.17;100.00;100322.09;4858486;29;20442;-79
2024/01/30 03:37:59;;;;;;;0.90;0.90;;;;;;;-2.14;100.00;100316.53;4858128;29;20166;-79
2024/01/30 03:40:27;;;;;;;0.93;0.93;;;;;;;-2.16;100.00;100321.94;4857683;29;20065;-78
2024/01/30 03:42:54;;;;;;;1.02;1.02;;;;;;;-2.17;100.00;100311.50;4858046;29;20084;-79
2024/01/30 03:45:22;;;;;;;1.10;1.10;;;;;;;-2.11;100.00;100322.38;4858759;29;20219;-80
2024/01/30 03:47:49;;;;;;;1.00;1.00;;;;;;;-2.08;100.00;100316.84;4858285;29;20061;-79
2024/01/30 03:50:16;;;;;;;1.00;1.00;;;;;;;-2.09;100.00;100330.22;4857690;29;20080;-79
2024/01/30 03:52:44;;;;;;;1.10;1.10;;;;;;;-2.04;100.00;100318.25;4857968;29;20057;-80
2024/01/30 03:55:11;;;;;;;1.10;1.10;;;;;;;-1.99;100.00;100310.75;4857644;29;20056;-81
2024/01/30 03:57:39;;;;;;;1.10;1.10;;;;;;;-1.98;100.00;100322.19;4858053;29;20065;-80
2024/01/30 04:00:07;;;;;;;1.00;1.00;;;;;;;-1.96;100.00;100320.25;4857316;29;20072;-81
2024/01/30 04:02:40;;;;;;;1.00;1.00;;;;;;;-2.00;100.00;100329.41;4857845;29;20057;-81
2024/01/30 04:05:08;;;;;;;1.10;1.10;;;;;;;-2.00;100.00;100322.31;4857725;29;20061;-80
2024/01/30 04:07:35;;;;;;;1.00;1.00;;;;;;;-1.96;100.00;100328.19;4858181;29;20109;-75
2024/01/30 04:10:05;;;;;;;1.08;1.08;;;;;;;-1.92;100.00;100324.31;4856960;29;20487;-76
2024/01/30 04:12:33;;;;;;;0.90;0.90;;;;;;;-1.91;100.00;100331.28;4857207;29;20103;-78
2024/01/30 04:15:00;;;;;;;0.90;0.90;;;;;;;-1.93;100.00;100330.56;4857735;29;20057;-80
2024/01/30 04:17:29;;;;;;;1.00;1.00;;;;;;;-1.91;100.00;100328.63;4841280;29;20053;-79
2024/01/30 04:19:57;;;;;;;1.10;1.10;;;;;;;-1.91;100.00;100336.56;4857191;29;20057;-76
2024/01/30 04:22:24;;;;;;;0.90;0.90;;;;;;;-1.91;100.00;100338.38;4857280;29;20437;-76
2024/01/30 04:24:52;;;;;;;1.00;1.00;;;;;;;-1.84;100.00;100335.06;4876478;29;20052;-75
2024/01/30 04:27:20;;;;;;;0.90;0.90;;;;;;;-1.80;100.00;100336.50;4870236;29;20053;-78
2024/01/30 04:29:47;;;;;;;1.10;1.10;;;;;;;-1.77;100.00;100338.03;4864053;29;20049;-78
2024/01/30 04:32:15;;;;;;;0.90;0.90;;;;;;;-1.78;100.00;100331.88;4863448;29;20055;-78
2024/01/30 04:34:42;;;;;;;0.82;0.82;;;;;;;-1.75;100.00;100329.00;4865051;29;20061;-77
2024/01/30 04:37:10;;;;;;;1.00;1.00;;;;;;;-1.72;100.00;100343.78;4867036;29;20057;-77
2024/01/30 04:39:38;;;;;;;0.88;0.88;;;;;;;-1.68;100.00;100333.75;4861291;29;20065;-79
2024/01/30 04:42:05;;;;;;;1.00;1.00;;;;;;;-1.66;100.00;100329.16;4859958;29;20061;-78
2024/01/30 04:44:35;;;;;;;1.00;1.00;;;;;;;-1.67;100.00;100322.19;4865970;29;20053;-76
2024/01/30 04:47:05;;;;;;;1.00;1.00;;;;;;;-1.66;100.00;100323.88;4864142;29;20053;-76
2024/01/30 04:49:32;;;;;;;0.90;0.90;;;;;;;-1.65;100.00;100322.88;4862790;29;20048;-77
2024/01/30 04:51:59;;;;;;;0.80;0.80;;;;;;;-1.66;100.00;100329.16;4862953;29;20102;-77
2024/01/30 04:54:27;;;;;;;0.98;0.98;;;;;;;-1.65;100.00;100322.88;4856759;29;20065;-77
2024/01/30 04:56:54;;;;;;;1.02;1.02;;;;;;;-1.64;100.00;100330.72;4839790;29;20097;-75
2024/01/30 04:59:21;;;;;;;0.90;0.90;;;;;;;-1.59;100.00;100330.31;4856834;29;20073;-76
2024/01/30 05:01:48;;;;;;;0.85;0.85;;;;;;;-1.56;100.00;100335.34;4853364;29;20059;-75
2024/01/30 05:04:16;;;;;;;1.00;1.00;;;;;;;-1.56;100.00;100332.69;4862953;29;20065;-75
2024/01/30 05:06:43;;;;;;;1.00;1.00;;;;;;;-1.55;100.00;100329.88;4856552;29;20704;-77
2024/01/30 05:09:12;;;;;;;0.93;0.93;;;;;;;-1.55;100.00;100331.69;4851868;29;20148;-76
2024/01/30 05:11:40;;;;;;;0.90;0.90;;;;;;;-1.56;100.00;100335.34;4874990;29;20056;-76
2024/01/30 05:14:08;;;;;;;1.10;1.10;;;;;;;-1.56;100.00;100328.22;4869782;29;20450;-79
2024/01/30 05:16:36;;;;;;;0.98;0.98;;;;;;;-1.50;100.00;100326.84;4855948;29;20288;-77
2024/01/30 05:19:03;;;;;;;1.00;1.00;;;;;;;-1.46;100.00;100336.19;4864619;29;20069;-76
2024/01/30 05:21:32;;;;;;;1.10;1.10;;;;;;;-1.44;100.00;100338.69;4870027;29;20092;-81
2024/01/30 05:23:59;;;;;;;0.80;0.80;;;;;;;-1.46;100.00;100333.56;4863729;29;20052;-77
2024/01/30 05:26:26;;;;;;;0.90;0.90;;;;;;;-1.45;100.00;100343.16;4859167;29;20064;-75
2024/01/30 05:28:53;;;;;;;1.00;1.00;;;;;;;-1.47;100.00;100312.50;4858242;29;20056;-76
2024/01/30 05:31:21;;;;;;;1.00;1.00;;;;;;;-1.45;100.00;100340.50;4854908;29;20057;-77
2024/01/30 05:33:48;;;;;;;1.10;1.10;;;;;;;-1.39;100.00;100337.34;4856013;29;20061;-77
2024/01/30 05:36:16;;;;;;;0.93;0.93;;;;;;;-1.44;100.00;100331.63;4855951;29;20600;-77
2024/01/30 05:38:44;;;;;;;0.90;0.90;;;;;;;-1.39;100.00;100336.50;4855654;29;20060;-77
2024/01/30 05:41:11;;;;;;;1.00;1.00;;;;;;;-1.43;100.00;100349.16;4855984;29;20502;-77
2024/01/30 05:43:38;;;;;;;1.10;1.10;;;;;;;-1.39;100.00;100342.63;4839926;29;20056;-77
2024/01/30 05:46:06;;;;;;;0.98;0.98;;;;;;;-1.35;100.00;100337.91;4855850;29;20577;-76
2024/01/30 05:48:35;;;;;;;1.00;1.00;;;;;;;-1.32;100.00;100334.97;4856696;29;20108;-77
2024/01/30 05:51:03;;;;;;;1.00;1.00;;;;;;;-1.28;100.00;100347.00;4856649;29;20057;-76
2024/01/30 05:53:31;;;;;;;1.00;1.00;;;;;;;-1.23;100.00;100336.00;4856383;29;20489;-77
2024/01/30 05:56:01;;;;;;;0.90;0.90;;;;;;;-1.23;100.00;100336.00;4856454;29;20580;-77
2024/01/30 05:58:28;;;;;;;0.90;0.90;;;;;;;-1.23;100.00;100354.53;4855898;29;20073;-76
2024/01/30 06:00:55;;;;;;;1.00;1.00;;;;;;;-1.21;100.00;100347.28;4856044;29;20663;-77
2024/01/30 06:03:23;;;;;;;1.00;1.00;;;;;;;-1.23;100.00;100362.47;4859192;29;20057;-77
2024/01/30 06:05:50;;;;;;;1.08;1.08;;;;;;;-1.19;100.00;100361.22;4859646;29;20057;-77
2024/01/30 06:08:18;;;;;;;0.90;0.90;;;;;;;-1.17;100.00;100364.56;4859265;29;20057;-76
2024/01/30 06:10:45;;;;;;;1.00;1.00;;;;;;;-1.16;100.00;100361.81;4859498;29;20553;-76
2024/01/30 06:13:12;;;;;;;0.90;0.90;;;;;;;-1.13;100.00;100358.88;4859726;29;20053;-76
2024/01/30 06:15:40;;;;;;;0.95;0.95;;;;;;;-1.10;100.00;100360.41;4859303;29;20068;-76
2024/01/30 06:18:07;;;;;;;1.00;1.00;;;;;;;-1.08;100.00;100363.78;4890202;29;20056;-77
2024/01/30 06:20:35;;;;;;;0.93;0.93;;;;;;;-1.08;100.00;100363.78;4874106;29;20641;-76
2024/01/30 06:23:03;;;;;;;1.00;1.00;;;;;;;-1.10;100.00;100363.06;4842453;29;20422;-77
2024/01/30 06:25:30;;;;;;;1.00;1.00;;;;;;;-1.10;100.00;100363.91;4859345;29;20145;-77
2024/01/30 06:27:57;;;;;;;1.00;1.00;;;;;;;-1.05;100.00;100358.19;4842267;29;20057;-76
2024/01/30 06:30:25;;;;;;;1.00;1.00;;;;;;;-1.08;100.00;100357.63;4859191;29;20061;-77
2024/01/30 06:32:52;;;;;;;1.00;1.00;;;;;;;-1.05;100.00;100382.03;4859419;29;20140;-76
2024/01/30 06:35:20;;;;;;;0.90;0.90;;;;;;;-1.04;100.00;100370.44;4858944;29;20125;-77
2024/01/30 06:37:47;;;;;;;1.00;1.00;;;;;;;-1.04;100.00;100367.81;4842463;29;20053;-78
2024/01/30 06:40:14;;;;;;;0.90;0.90;;;;;;;-1.04;100.00;100370.44;4859182;29;20129;-78
2024/01/30 06:42:42;;;;;;;0.95;0.95;;;;;;;-0.97;100.00;100368.94;4858935;29;20053;-77
2024/01/30 06:45:09;;;;;;;1.00;1.00;;;;;;;-0.95;100.00;100374.94;4858594;29;20049;-78
2024/01/30 06:47:36;;;;;;;1.00;1.00;;;;;;;-0.89;100.00;100374.41;4858794;29;20482;-76
2024/01/30 06:50:07;;;;;;;1.00;1.00;;;;;;;-0.83;100.00;100374.84;4859057;29;20136;-78
2024/01/30 06:52:34;;;;;;;1.00;1.00;;;;;;;-0.79;100.00;100385.00;4858898;29;20053;-77
2024/01/30 06:55:02;;;;;;;1.00;1.00;;;;;;;-0.74;100.00;100389.91;4858860;29;20136;-76
2024/01/30 06:57:31;;;;;;;1.10;1.10;;;;;;;-0.75;100.00;100385.59;4858675;29;20500;-77
2024/01/30 06:59:58;;;;;;;1.00;1.00;;;;;;;-0.78;100.00;100391.16;4858683;29;20400;-78
2024/01/30 07:02:26;;;;;;;0.90;0.90;;;;;;;-0.75;100.00;100386.41;4842189;29;20053;-78
2024/01/30 07:04:53;;;;;;;0.90;0.90;;;;;;;-0.71;100.00;100401.09;4858300;29;20524;-77
2024/01/30 07:07:21;;;;;;;0.93;0.93;;;;;;;-0.73;100.00;100389.78;4863254;29;20053;-80
2024/01/30 07:09:52;;;;;;;1.00;1.00;;;;;;;-0.70;100.00;100396.63;4871171;29;20502;-78
2024/01/30 07:12:19;;;;;;;0.90;0.90;;;;;;;-0.72;100.00;100385.31;4853210;29;20081;-80
2024/01/30 07:14:47;;;;;;;1.05;1.05;;;;;;;-0.69;100.00;100385.03;4857157;29;20544;-79
2024/01/30 07:17:14;;;;;;;1.00;1.00;;;;;;;-0.63;100.00;100389.78;4858151;29;20084;-80
2024/01/30 07:19:42;;;;;;;1.00;1.00;;;;;;;-0.61;100.00;100410.84;4841928;29;20110;-76
2024/01/30 07:22:09;;;;;;;0.90;0.90;;;;;;;-0.64;100.00;100404.00;4859250;29;20057;-78
2024/01/30 07:24:44;;;;;;;0.80;0.80;;;;;;;-0.69;100.00;100406.22;4863157;29;20140;-79
2024/01/30 07:27:12;;;;;;;1.00;1.00;;;;;;;-0.70;100.00;100409.88;4860961;29;20053;-79
2024/01/30 07:29:39;;;;;;;1.00;1.00;;;;;;;-0.68;100.00;100402.63;4524316;29;10000261;-77
2024/01/30 07:32:06;;;;;;;1.00;1.00;;;;;;;-0.61;100.00;100392.28;4864146;29;20111;-78
2024/01/30 07:34:33;;;;;;;0.90;0.90;;;;;;;-0.57;100.00;100394.53;4863835;29;20148;-77
2024/01/30 07:37:16;;;;;;;1.00;1.00;;;;;;;-0.55;100.00;100399.72;4839897;29;20060;-81
2024/01/30 07:39:43;;;;;;;1.00;1.00;;;;;;;-0.52;100.00;100402.06;4864077;29;20080;-79
2024/01/30 07:42:14;;;;;;;1.00;1.00;;;;;;;-0.51;100.00;100403.75;4864541;29;20098;-80
2024/01/30 07:44:42;;;;;;;1.10;1.10;;;;;;;-0.47;100.00;100399.84;4865656;29;20071;-80
2024/01/30 07:47:09;;;;;;;1.00;1.00;;;;;;;-0.44;100.00;100389.78;4860594;29;20050;-80
2024/01/30 07:49:38;;;;;;;1.00;1.00;;;;;;;-0.42;100.00;100399.44;4850124;29;20182;-81
2024/01/30 07:52:06;;;;;;;0.90;0.90;;;;;;;-0.46;100.00;100405.03;4863255;29;20140;-81
2024/01/30 07:54:33;;;;;;;1.10;1.10;;;;;;;-0.51;100.00;100404.56;4848842;29;20581;-80
2024/01/30 07:57:01;;;;;;;0.90;0.90;;;;;;;-0.49;100.00;100402.63;4864125;29;20540;-76
2024/01/30 07:59:28;;;;;;;1.10;1.10;;;;;;;-0.42;100.00;100399.44;4864032;29;20080;-79
2024/01/30 08:01:56;;;;;;;1.00;1.00;;;;;;;-0.40;100.00;100408.94;4865140;29;20049;-81
2024/01/30 08:04:23;;;;;;;0.90;0.90;;;;;;;-0.40;100.00;100406.28;4862668;29;20063;-81
2024/01/30 08:06:51;;;;;;;1.00;1.00;;;;;;;-0.46;100.00;100406.81;4859077;29;20106;-79
2024/01/30 08:09:19;;;;;;;0.90;0.90;;;;;;;-0.41;100.00;100409.06;4864428;29;20425;-78
2024/01/30 08:11:49;;;;;;;1.08;1.08;;;;;;;-0.35;100.00;100413.81;4846184;29;20105;-78
2024/01/30 08:14:16;;;;;;;0.98;0.98;;;;;;;-0.27;100.00;100411.28;4864617;29;20528;-79
2024/01/30 08:16:44;;;;;;;1.00;1.00;;;;;;;-0.21;100.00;100402.75;4830251;29;20122;-79
2024/01/30 08:19:12;;;;;;;1.00;1.00;;;;;;;-0.20;100.00;100401.81;4829770;29;20045;-77
2024/01/30 08:21:39;;;;;;;1.10;1.10;;;;;;;-0.18;100.00;100409.59;4833650;29;20057;-77
2024/01/30 08:24:07;;;;;;;1.00;1.00;;;;;;;-0.12;100.00;100404.59;4834312;29;20054;-76
2024/01/30 08:26:35;;;;;;;1.10;1.10;;;;;;;-0.02;100.00;100405.41;4833401;29;20065;-78
2024/01/30 08:29:02;;;;;;;1.00;1.00;;;;;;;0.13;100.00;100415.59;4832028;29;20064;-79
2024/01/30 08:31:30;;;;;;;1.00;1.00;;;;;;;0.12;99.68;100413.91;4833247;29;20147;-79
2024/01/30 08:33:58;;;;;;;0.90;0.90;;;;;;;0.01;99.48;100408.75;4825122;29;20054;-77
2024/01/30 08:36:25;;;;;;;1.00;1.00;;;;;;;-0.08;99.83;100429.84;4831474;29;20217;-77
2024/01/30 08:38:54;;;;;;;1.00;1.00;;;;;;;-0.13;100.00;100408.19;4833221;29;20050;-77
2024/01/30 08:41:28;;;;;;;1.00;1.00;;;;;;;-0.14;100.00;100400.41;4829833;29;20053;-77
2024/01/30 08:43:56;;;;;;;0.98;0.98;;;;;;;-0.06;100.00;100398.69;4833147;29;20041;-79
2024/01/30 08:46:23;;;;;;;1.00;1.00;;;;;;;-0.08;100.00;100400.66;4833064;29;20062;-77
2024/01/30 08:48:51;;;;;;;0.90;0.90;;;;;;;-0.09;99.74;100383.06;4861561;29;20132;-78
2024/01/30 08:51:19;;;;;;;1.00;1.00;;;;;;;-0.08;99.61;100394.50;4864941;29;20110;-75
2024/01/30 08:53:46;;;;;;;0.90;0.90;;;;;;;-0.10;99.62;100399.97;4866102;29;20050;-79
2024/01/30 08:56:13;;;;;;;0.93;0.93;;;;;;;-0.14;99.65;100393.25;4864374;29;20053;-82
2024/01/30 08:58:41;;;;;;;1.00;1.00;;;;;;;-0.10;99.79;100402.63;4869014;29;20528;-77
2024/01/30 09:01:08;;;;;;;1.00;1.00;;;;;;;-0.08;100.00;100399.81;4867519;29;20436;-81
2024/01/30 09:03:37;;;;;;;1.00;1.00;;;;;;;-0.09;99.93;100395.50;4865853;29;20109;-79
2024/01/30 09:06:08;;;;;;;1.00;1.00;;;;;;;-0.14;99.70;100389.78;4866026;29;20508;-81
2024/01/30 09:08:36;;;;;;;1.00;1.00;;;;;;;-0.07;99.91;100391.72;4866320;29;20073;-79
2024/01/30 09:11:14;;;;;;;1.00;1.00;;;;;;;-0.02;99.96;100397.44;4858433;29;20122;-82
2024/01/30 09:13:41;;;;;;;0.82;0.82;;;;;;;-0.05;99.83;100395.06;4841930;29;20219;-80
2024/01/30 09:16:09;;;;;;;1.02;1.02;;;;;;;-0.07;100.00;100398.84;4848026;29;20501;-80
2024/01/30 09:18:37;;;;;;;0.80;0.80;;;;;;;-0.02;100.00;100405.41;4865162;29;20114;-81
2024/01/30 09:21:04;;;;;;;0.88;0.88;;;;;;;0.02;99.87;100394.50;4853588;29;20046;-80
2024/01/30 09:23:32;;;;;;;0.93;0.93;;;;;;;-0.02;99.50;100391.31;4859112;29;20068;-81
2024/01/30 09:26:02;;;;;;;0.90;0.90;;;;;;;-0.01;99.69;100403.59;4864880;29;20064;-82
2024/01/30 09:28:29;;;;;;;0.93;0.93;;;;;;;0.06;99.92;100395.91;4851834;29;20377;-83
2024/01/30 09:30:59;;;;;;;0.93;0.93;;;;;;;0.06;100.00;100404.69;4852696;29;20053;-80
2024/01/30 09:33:27;;;;;;;1.00;1.00;;;;;;;0.04;99.61;100404.00;4836263;29;20133;-82
2024/01/30 09:35:54;;;;;;;1.00;1.00;;;;;;;0.12;99.98;100411.25;4844162;29;20055;-83
2024/01/30 09:38:24;;;;;;;0.95;0.95;;;;;;;0.18;99.58;100406.22;4840019;29;20509;-83
2024/01/30 09:40:57;;;;;;;0.90;0.90;;;;;;;0.22;99.29;100406.75;4869547;29;20147;-87
2024/01/30 09:43:30;;;;;;;1.10;1.10;;;;;;;0.24;99.02;100383.56;4858604;29;20060;-86
2024/01/30 09:45:59;;;;;;;0.90;0.90;;;;;;;0.16;99.00;100383.44;4851322;29;20049;-87
2024/01/30 09:48:27;;;;;;;1.00;1.00;;;;;;;0.19;98.96;100391.94;4851775;29;20147;-83
2024/01/30 09:50:57;;;;;;;1.00;1.00;;;;;;;0.24;98.93;100396.00;4849405;29;20110;-84
2024/01/30 09:53:25;;;;;;;1.00;1.00;;;;;;;0.28;98.78;100389.41;4853889;29;20211;-81
2024/01/30 09:55:52;;;;;;;1.08;1.08;;;;;;;0.32;98.30;100382.84;4858972;29;20136;-85
2024/01/30 09:58:19;;;;;;;1.00;1.00;;;;;;;0.28;98.14;100390.25;4869476;29;20527;-83
2024/01/30 10:00:47;;;;;;;0.90;0.90;;;;;;;0.24;98.33;100399.47;4871306;29;20150;-86
2024/01/30 10:03:14;;;;;;;0.90;0.90;;;;;;;0.15;98.57;100393.22;4852038;29;20140;-83
2024/01/30 10:05:51;;;;;;;1.00;1.00;;;;;;;0.15;98.41;100390.56;4841112;29;20049;-78
2024/01/30 10:08:19;;;;;;;0.90;0.90;;;;;;;0.17;98.70;100393.06;4859501;29;20049;-81
2024/01/30 10:10:47;;;;;;;1.00;1.00;;;;;;;0.19;98.54;100391.13;4848966;29;20831;-82
2024/01/30 10:13:14;;;;;;;1.00;1.00;;;;;;;0.19;98.46;100389.28;4852700;29;20049;-80
2024/01/30 10:15:42;;;;;;;1.00;1.00;;;;;;;0.23;98.78;100392.50;4871168;29;20144;-84
2024/01/30 10:18:10;;;;;;;1.00;1.00;;;;;;;0.30;98.75;100396.25;4872409;29;20124;-81
2024/01/30 10:20:38;;;;;;;0.90;0.90;;;;;;;0.36;98.50;100379.75;4853310;29;20071;-79
2024/01/30 10:23:06;;;;;;;0.93;0.93;;;;;;;0.41;98.36;100382.81;4868820;29;20102;-79
2024/01/30 10:25:33;;;;;;;0.90;0.90;;;;;;;0.35;98.37;100386.03;4869729;29;20057;-82
2024/01/30 10:28:01;;;;;;;1.10;1.10;;;;;;;0.31;98.39;100374.03;4869506;29;20085;-82
2024/01/30 10:30:28;;;;;;;1.00;1.00;;;;;;;0.29;97.93;100380.47;4850030;29;20065;-83
2024/01/30 10:32:59;;;;;;;0.90;0.90;;;;;;;0.23;97.96;100373.94;4855227;29;20089;-86
2024/01/30 10:35:27;;;;;;;1.00;1.00;;;;;;;0.26;98.16;100376.28;4849880;29;20056;-84
2024/01/30 10:38:00;;;;;;;0.88;0.88;;;;;;;0.34;97.85;100384.34;4837685;29;20525;-87
2024/01/30 10:40:28;;;;;;;0.90;0.90;;;;;;;0.45;97.64;100385.16;4868653;29;20144;-86
2024/01/30 10:42:56;;;;;;;0.90;0.90;;;;;;;0.46;97.54;100386.81;4869250;29;20053;-87
2024/01/30 10:45:28;;;;;;;1.10;1.10;;;;;;;0.43;97.31;100364.03;4854532;29;20471;-87
2024/01/30 10:48:03;;;;;;;1.00;1.00;;;;;;;0.41;97.45;100374.84;4848714;29;20060;-90
2024/01/30 10:50:40;;;;;;;1.10;1.10;;;;;;;0.39;97.03;100384.75;4864318;29;20057;-88
2024/01/30 10:53:32;;;;;;;1.10;1.10;;;;;;;0.41;97.37;100379.31;4852061;29;20378;-91
2024/01/30 10:56:01;;;;;;;0.90;0.90;;;;;;;0.56;97.59;100393.78;4842682;29;20041;-91
2024/01/30 10:58:37;;;;;;;0.90;0.90;;;;;;;0.53;96.91;100388.78;4820770;29;20045;-84
2024/01/30 11:01:06;;;;;;;0.93;0.93;;;;;;;0.57;97.28;100390.16;4843015;29;20161;-87
2024/01/30 11:03:36;;;;;;;1.00;1.00;;;;;;;0.59;96.93;100392.66;4844087;29;20053;-87
2024/01/30 11:06:03;;;;;;;0.90;0.90;;;;;;;0.56;97.27;100391.13;4850366;29;20061;-84
2024/01/30 11:08:34;;;;;;;0.90;0.90;;;;;;;0.67;97.21;100397.25;4843850;29;20077;-81
2024/01/30 11:11:08;;;;;;;0.90;0.90;;;;;;;0.71;96.84;100394.16;4855270;29;20136;-80
2024/01/30 11:13:36;;;;;;;0.90;0.90;;;;;;;0.71;96.36;100385.31;4853913;29;20086;-80
2024/01/30 11:16:05;;;;;;;1.00;1.00;;;;;;;0.62;96.40;100401.16;4864980;29;20139;-83
2024/01/30 11:18:33;;;;;;;0.98;0.98;;;;;;;0.56;96.55;100403.59;4845717;29;20081;-83
2024/01/30 11:21:01;;;;;;;1.02;1.02;;;;;;;0.54;96.67;100410.88;4852445;29;20053;-84
2024/01/30 11:23:31;;;;;;;0.90;0.90;;;;;;;0.55;96.62;100400.06;4852878;29;20094;-84